Time;durP1;ratioP1;P1;durP2;ratioP2;P2;SDS_P1;SDS_P2;PMS_P1;PMS_P2;Temp;Humidity;BMP_temperature;BMP_pressure;BME280_temperature;BME280_humidity;BME280_pressure;Samples;Min_cycle;Max_cycle;Signal;HPM_P1;HPM_P2
2024/03/14 00:02:25;;;;;;;9.60;7.07;;;10.80;1.00;;;;;;5067589;28;20483;-61
2024/03/14 00:04:52;;;;;;;9.20;6.50;;;10.80;19.10;;;;;;5068163;28;20481;-62
2024/03/14 00:07:21;;;;;;;8.67;7.17;;;10.80;1.00;;;;;;5069074;28;20457;-61
2024/03/14 00:09:49;;;;;;;11.23;6.00;;;10.80;1.00;;;;;;5069290;28;20775;-61
2024/03/14 00:12:17;;;;;;;10.40;6.90;;;10.80;99.90;;;;;;5070282;28;20453;-61
2024/03/14 00:14:50;;;;;;;9.33;7.90;;;10.80;99.90;;;;;;5070192;28;20467;-61
2024/03/14 00:17:18;;;;;;;10.27;6.50;;;10.90;65.00;;;;;;5069604;28;20464;-61
2024/03/14 00:19:46;;;;;;;8.90;6.83;;;10.90;1.00;;;;;;5070472;28;20476;-61
2024/03/14 00:22:13;;;;;;;7.20;6.20;;;10.80;1.00;;;;;;5068667;28;20458;-61
2024/03/14 00:24:41;;;;;;;7.70;6.67;;;10.80;26.10;;;;;;5067361;28;20511;-61
2024/03/14 00:27:08;;;;;;;9.60;6.87;;;10.80;1.00;;;;;;5068661;28;20485;-61
2024/03/14 00:29:36;;;;;;;7.00;6.30;;;10.80;1.00;;;;;;5069403;28;20743;-61
2024/03/14 00:32:03;;;;;;;9.33;6.90;;;10.90;99.90;;;;;;5067644;28;20459;-61
2024/03/14 00:34:30;;;;;;;25.10;6.93;;;10.90;99.90;;;;;;5067233;28;20485;-61
2024/03/14 00:36:59;;;;;;;7.83;6.20;;;10.90;1.00;;;;;;5066965;28;20514;-61
2024/03/14 00:39:26;;;;;;;8.23;6.17;;;10.90;1.00;;;;;;5068036;28;20466;-62
2024/03/14 00:41:54;;;;;;;7.40;6.20;;;10.90;1.00;;;;;;5068510;28;20879;-61
2024/03/14 00:44:22;;;;;;;6.83;6.10;;;10.90;1.00;;;;;;5067643;28;20457;-57
2024/03/14 00:46:50;;;;;;;8.53;6.80;;;11.00;1.00;;;;;;5058817;28;20461;-58
2024/03/14 00:49:18;;;;;;;10.83;6.20;;;11.00;1.00;;;;;;5059318;28;20462;-58
2024/03/14 00:51:45;;;;;;;6.53;5.80;;;11.00;99.90;;;;;;5058741;28;20831;-57
2024/03/14 00:54:12;;;;;;;10.03;6.40;;;10.90;99.90;;;;;;5059343;28;20499;-57
2024/03/14 00:56:43;;;;;;;8.40;6.70;;;10.90;1.00;;;;;;5058665;28;20457;-55
2024/03/14 00:59:12;;;;;;;8.40;6.63;;;11.00;99.90;;;;;;5059555;28;20560;-58
2024/03/14 01:01:43;;;;;;;7.67;6.13;;;10.90;1.00;;;;;;5059187;28;20457;-58
2024/03/14 01:04:10;;;;;;;7.07;5.90;;;10.90;4.00;;;;;;5059378;28;20457;-57
2024/03/14 01:06:38;;;;;;;7.70;6.90;;;10.90;99.90;;;;;;5058600;28;20464;-57
2024/03/14 01:09:06;;;;;;;9.57;7.50;;;10.90;99.90;;;;;;5058688;28;20845;-58
2024/03/14 01:11:34;;;;;;;8.00;6.47;;;10.90;99.90;;;;;;5059192;28;20468;-58
2024/03/14 01:14:01;;;;;;;7.20;6.50;;;10.90;99.90;;;;;;5059166;28;20499;-57
2024/03/14 01:16:29;;;;;;;8.50;6.27;;;10.80;99.90;;;;;;5058154;28;20457;-58
2024/03/14 01:18:56;;;;;;;8.13;6.67;;;10.80;23.70;;;;;;5057112;28;20457;-58
2024/03/14 01:21:23;;;;;;;10.40;6.30;;;10.90;99.90;;;;;;5059290;28;20540;-58
2024/03/14 01:23:50;;;;;;;9.83;6.80;;;10.80;1.00;;;;;;5061253;28;20461;-57
2024/03/14 01:26:20;;;;;;;9.20;6.30;;;10.80;99.90;;;;;;5061120;28;20510;-58
2024/03/14 01:28:47;;;;;;;10.10;7.40;;;10.80;99.90;;;;;;5061118;28;20555;-57
2024/03/14 01:31:15;;;;;;;10.13;6.93;;;10.80;1.00;;;;;;5061739;28;20493;-58
2024/03/14 01:33:43;;;;;;;9.13;6.70;;;10.80;99.90;;;;;;5062415;28;20497;-57
2024/03/14 01:36:10;;;;;;;8.20;6.67;;;10.80;99.90;;;;;;5062231;28;20543;-57
2024/03/14 01:38:37;;;;;;;8.43;7.27;;;10.80;1.00;;;;;;5061766;28;20510;-58
2024/03/14 01:41:06;;;;;;;7.60;6.50;;;10.80;99.90;;;;;;5060713;28;20494;-57
2024/03/14 01:43:34;;;;;;;11.07;7.90;;;10.80;13.50;;;;;;5060934;28;20804;-58
2024/03/14 01:46:02;;;;;;;7.73;6.97;;;10.80;99.90;;;;;;5060681;28;20485;-58
2024/03/14 01:48:29;;;;;;;9.30;7.20;;;10.80;1.00;;;;;;5061021;28;20465;-57
2024/03/14 01:50:57;;;;;;;6.80;6.10;;;10.80;99.90;;;;;;5060574;28;20672;-58
2024/03/14 01:53:24;;;;;;;10.50;7.00;;;10.80;99.90;;;;;;5062457;28;20497;-61
2024/03/14 01:55:51;;;;;;;8.73;7.10;;;10.80;1.00;;;;;;5064515;28;20991;-61
2024/03/14 01:58:22;;;;;;;7.87;6.20;;;10.70;1.00;;;;;;5064129;28;20906;-61
2024/03/14 02:00:49;;;;;;;8.87;5.80;;;10.80;1.00;;;;;;5064994;28;20469;-61
2024/03/14 02:03:17;;;;;;;7.33;6.47;;;10.80;99.90;;;;;;5064720;28;20518;-61
2024/03/14 02:05:44;;;;;;;8.13;6.60;;;10.70;99.90;;;;;;5064060;28;20460;-61
2024/03/14 02:08:12;;;;;;;7.73;6.87;;;10.70;99.90;;;;;;5064407;28;20457;-61
2024/03/14 02:10:39;;;;;;;10.70;7.17;;;10.70;99.90;;;;;;5063438;28;20588;-61
2024/03/14 02:13:06;;;;;;;9.57;6.47;;;10.70;1.00;;;;;;5063465;28;20460;-61
2024/03/14 02:15:35;;;;;;;10.37;6.43;;;10.70;99.90;;;;;;5063048;28;20583;-61
2024/03/14 02:18:02;;;;;;;9.47;6.90;;;10.70;1.00;;;;;;5063954;28;20461;-61
2024/03/14 02:20:30;;;;;;;7.80;7.00;;;10.70;1.00;;;;;;5063767;28;20461;-61
2024/03/14 02:22:57;;;;;;;7.37;6.53;;;10.70;1.00;;;;;;5064198;28;20457;-61
2024/03/14 02:25:25;;;;;;;9.90;6.33;;;10.70;1.00;;;;;;5063397;28;20493;-61
2024/03/14 02:28:02;;;;;;;7.83;5.37;;;10.70;1.00;;;;;;5063537;28;20762;-61
2024/03/14 02:30:29;;;;;;;6.97;6.00;;;10.60;1.00;;;;;;5064206;28;20468;-61
2024/03/14 02:32:57;;;;;;;7.67;6.13;;;10.50;1.00;;;;;;5063158;28;20454;-61
2024/03/14 02:35:24;;;;;;;7.70;6.47;;;10.40;1.00;;;;;;5063046;28;20493;-61
2024/03/14 02:37:52;;;;;;;8.10;6.00;;;10.30;1.00;;;;;;5063201;28;20453;-61
2024/03/14 02:40:19;;;;;;;7.60;6.33;;;10.20;1.00;;;;;;5063467;28;20739;-61
2024/03/14 02:42:47;;;;;;;8.43;6.07;;;10.20;1.00;;;;;;5063444;28;20489;-61
2024/03/14 02:45:20;;;;;;;9.50;7.10;;;10.10;75.10;;;;;;5063033;28;20511;-61
2024/03/14 02:47:49;;;;;;;8.57;6.43;;;10.10;1.00;;;;;;5063912;28;20493;-61
2024/03/14 02:50:18;;;;;;;7.73;6.20;;;10.00;90.70;;;;;;5063497;28;20461;-61
2024/03/14 02:52:46;;;;;;;8.47;6.73;;;9.90;75.00;;;;;;5063233;28;20464;-61
2024/03/14 02:55:13;;;;;;;6.93;6.20;;;9.90;92.60;;;;;;5063064;28;20591;-61
2024/03/14 02:57:41;;;;;;;7.10;6.33;;;9.90;98.40;;;;;;5063250;28;20493;-61
2024/03/14 03:00:15;;;;;;;7.60;6.50;;;9.80;99.90;;;;;;5063039;28;20461;-60
2024/03/14 03:02:44;;;;;;;7.23;6.20;;;9.80;99.90;;;;;;5064376;28;20456;-61
2024/03/14 03:05:11;;;;;;;9.37;5.37;;;9.80;99.90;;;;;;5062835;28;20598;-61
2024/03/14 03:07:38;;;;;;;8.23;6.17;;;9.80;23.50;;;;;;5063842;28;20461;-61
2024/03/14 03:10:07;;;;;;;9.17;7.13;;;9.70;29.70;;;;;;5063330;28;20461;-61
2024/03/14 03:12:39;;;;;;;7.43;6.40;;;9.70;17.70;;;;;;5062955;28;20450;-61
2024/03/14 03:15:07;;;;;;;7.43;5.67;;;9.60;99.00;;;;;;5063627;28;20493;-61
2024/03/14 03:17:35;;;;;;;8.27;7.37;;;9.60;97.80;;;;;;5062548;28;20453;-61
2024/03/14 03:20:09;;;;;;;8.77;7.13;;;9.50;99.90;;;;;;5062135;28;20479;-61
2024/03/14 03:25:19;;;;;;;7.43;6.17;;;9.50;99.90;;;;;;5063124;28;20448;-61
2024/03/14 03:27:46;;;;;;;7.50;6.63;;;9.50;99.90;;;;;;5062277;28;20478;-61
2024/03/14 03:30:13;;;;;;;7.77;6.47;;;9.40;99.90;;;;;;5061908;28;20472;-61
2024/03/14 03:32:39;;;;;;;9.13;7.40;;;9.40;99.90;;;;;;5061456;28;20548;-61
2024/03/14 03:35:11;;;;;;;10.43;7.10;;;9.40;99.90;;;;;;5061391;28;20495;-61
2024/03/14 03:37:37;;;;;;;8.80;6.73;;;9.40;99.90;;;;;;5062114;28;20458;-61
2024/03/14 03:40:13;;;;;;;9.50;7.80;;;9.40;99.90;;;;;;5062032;28;20464;-61
2024/03/14 03:42:41;;;;;;;6.87;6.17;;;9.30;99.90;;;;;;5062780;28;20889;-61
2024/03/14 03:45:10;;;;;;;8.47;7.20;;;9.20;99.90;;;;;;5062096;28;20461;-61
2024/03/14 03:47:37;;;;;;;7.90;6.00;;;9.20;99.90;;;;;;5062295;28;20539;-61
2024/03/14 03:50:06;;;;;;;9.10;7.37;;;9.10;1.00;;;;;;5062891;28;20466;-61
2024/03/14 03:52:32;;;;;;;9.90;6.10;;;9.00;1.00;;;;;;5062635;28;20863;-61
2024/03/14 03:54:59;;;;;;;9.10;7.50;;;9.00;1.00;;;;;;5062437;28;20493;-61
2024/03/14 03:57:27;;;;;;;10.40;7.10;;;9.00;1.00;;;;;;5061954;28;20493;-61
2024/03/14 03:59:53;;;;;;;13.70;7.20;;;8.90;29.40;;;;;;5062178;28;20492;-61
2024/03/14 04:02:20;;;;;;;10.50;7.60;;;8.90;99.90;;;;;;5062412;28;20882;-61
2024/03/14 04:04:47;;;;;;;8.60;7.37;;;8.80;99.90;;;;;;5062501;28;20454;-61
2024/03/14 04:07:15;;;;;;;9.93;8.07;;;8.80;99.90;;;;;;5062448;28;20543;-60
2024/03/14 04:09:45;;;;;;;8.97;7.60;;;8.80;99.90;;;;;;5062616;28;20829;-61
2024/03/14 04:12:11;;;;;;;13.27;9.07;;;8.70;1.00;;;;;;5062921;28;20476;-61
2024/03/14 04:14:42;;;;;;;11.23;8.37;;;8.70;1.00;;;;;;5062220;28;20507;-61
2024/03/14 04:17:11;;;;;;;10.33;7.97;;;8.50;99.90;;;;;;5062687;28;20457;-61
2024/03/14 04:19:39;;;;;;;9.40;8.30;;;8.40;99.90;;;;;;5062832;28;20468;-61
2024/03/14 04:22:06;;;;;;;11.83;9.23;;;8.30;99.90;;;;;;5062652;28;20512;-61
2024/03/14 04:24:35;;;;;;;11.00;9.10;;;8.30;1.00;;;;;;5063446;28;20742;-61
2024/03/14 04:27:05;;;;;;;11.03;8.83;;;8.20;99.90;;;;;;5062616;28;20511;-60
2024/03/14 04:29:32;;;;;;;10.60;9.30;;;8.30;99.90;;;;;;5062590;28;20551;-61
2024/03/14 04:31:59;;;;;;;14.10;9.77;;;8.30;99.90;;;;;;5062263;28;20454;-61
2024/03/14 04:34:27;;;;;;;11.47;8.70;;;8.30;99.90;;;;;;5062659;28;20547;-61
2024/03/14 04:36:55;;;;;;;10.03;8.80;;;8.30;1.00;;;;;;5061751;28;20497;-61
2024/03/14 04:39:23;;;;;;;10.97;8.73;;;8.30;99.90;;;;;;5061739;28;20462;-61
2024/03/14 04:41:52;;;;;;;12.43;9.20;;;8.20;1.00;;;;;;5061911;28;20922;-61
2024/03/14 04:44:20;;;;;;;10.70;9.03;;;8.20;1.00;;;;;;5062389;28;20951;-60
2024/03/14 04:46:47;;;;;;;11.20;9.10;;;8.10;99.90;;;;;;5061073;28;20457;-60
2024/03/14 04:49:14;;;;;;;12.43;9.10;;;8.10;1.00;;;;;;5061095;28;20768;-61
2024/03/14 04:51:41;;;;;;;8.43;7.53;;;8.10;1.00;;;;;;5061229;28;20457;-61
2024/03/14 04:54:09;;;;;;;11.20;9.20;;;8.10;1.00;;;;;;5061399;28;20544;-61
2024/03/14 04:56:36;;;;;;;10.17;8.87;;;8.10;99.90;;;;;;5065343;28;20562;-61
2024/03/14 04:59:05;;;;;;;11.83;8.00;;;8.10;99.90;;;;;;5065392;28;20548;-60
2024/03/14 05:01:32;;;;;;;9.40;7.97;;;8.10;99.90;;;;;;5065331;28;20460;-59
2024/03/14 05:03:59;;;;;;;13.40;9.10;;;8.00;1.00;;;;;;5065312;28;20507;-61
2024/03/14 05:06:27;;;;;;;10.67;8.93;;;8.00;1.00;;;;;;5065279;28;20457;-61
2024/03/14 05:08:55;;;;;;;14.03;9.50;;;8.00;99.90;;;;;;5064735;28;20457;-61
2024/03/14 05:11:22;;;;;;;9.80;8.83;;;8.00;99.90;;;;;;5080975;28;20457;-61
2024/03/14 05:13:56;;;;;;;10.53;8.60;;;7.90;99.90;;;;;;5080964;28;20457;-60
2024/03/14 05:16:23;;;;;;;11.33;8.43;;;7.80;1.00;;;;;;5081319;28;20485;-60
2024/03/14 05:18:50;;;;;;;10.50;9.40;;;7.80;1.00;;;;;;5081703;28;20937;-60
2024/03/14 05:21:18;;;;;;;11.07;9.03;;;7.70;1.00;;;;;;5080270;28;20583;-60
2024/03/14 05:23:45;;;;;;;12.07;9.90;;;7.60;99.90;;;;;;5080751;28;20465;-60
2024/03/14 05:26:12;;;;;;;14.60;10.63;;;7.60;1.00;;;;;;5080403;28;20497;-60
2024/03/14 05:28:39;;;;;;;13.00;9.00;;;7.60;99.90;;;;;;5064211;28;20537;-60
2024/03/14 05:31:06;;;;;;;12.50;9.40;;;7.50;99.90;;;;;;5080761;28;20461;-60
2024/03/14 05:33:35;;;;;;;13.13;9.93;;;7.50;1.00;;;;;;5080831;28;20763;-61
2024/03/14 05:36:02;;;;;;;11.27;9.50;;;7.50;1.00;;;;;;5080797;28;20980;-61
2024/03/14 05:38:29;;;;;;;20.13;10.00;;;7.60;1.90;;;;;;5080437;28;20513;-60
2024/03/14 05:40:58;;;;;;;12.07;10.03;;;7.60;99.90;;;;;;5063579;28;20492;-60
2024/03/14 05:43:25;;;;;;;12.77;10.13;;;7.60;1.00;;;;;;5064164;28;20457;-60
2024/03/14 05:45:53;;;;;;;13.83;11.30;;;7.60;1.00;;;;;;5063888;28;20453;-61
2024/03/14 05:48:23;;;;;;;12.90;9.23;;;7.60;99.90;;;;;;5064532;28;20459;-61
2024/03/14 05:50:50;;;;;;;11.90;10.60;;;7.50;1.00;;;;;;5081168;28;20479;-61
2024/03/14 05:53:18;;;;;;;13.30;10.87;;;7.50;1.00;;;;;;5064570;28;20461;-61
2024/03/14 05:55:47;;;;;;;13.60;10.20;;;7.50;1.00;;;;;;5064146;28;20542;-60
2024/03/14 05:58:15;;;;;;;13.13;10.87;;;7.50;1.00;;;;;;5064883;28;20502;-61
2024/03/14 06:00:42;;;;;;;13.77;11.80;;;7.50;20.30;;;;;;5064270;28;20489;-60
2024/03/14 06:03:13;;;;;;;12.50;10.30;;;7.50;99.90;;;;;;5063078;28;20449;-60
2024/03/14 06:05:40;;;;;;;12.53;10.67;;;7.50;41.30;;;;;;5064691;28;20464;-61
2024/03/14 06:08:07;;;;;;;14.67;10.67;;;7.50;56.60;;;;;;5063611;28;20540;-60
2024/03/14 06:10:35;;;;;;;12.07;10.57;;;7.50;99.90;;;;;;5064060;28;20548;-61
2024/03/14 06:13:03;;;;;;;15.20;11.50;;;7.60;99.90;;;;;;5064097;28;20453;-60
2024/03/14 06:15:30;;;;;;;12.57;10.73;;;7.50;99.90;;;;;;5064369;28;20489;-61
2024/03/14 06:17:58;;;;;;;17.60;12.33;;;7.50;99.90;;;;;;5064707;28;20568;-60
2024/03/14 06:20:25;;;;;;;15.97;12.53;;;7.50;99.90;;;;;;5063922;28;20457;-61
2024/03/14 06:22:52;;;;;;;13.00;11.60;;;7.50;99.90;;;;;;5064527;28;20453;-61
2024/03/14 06:25:21;;;;;;;14.33;12.37;;;7.60;99.90;;;;;;5064516;28;20458;-61
2024/03/14 06:27:49;;;;;;;12.33;10.93;;;7.60;99.90;;;;;;5064216;28;20485;-61
2024/03/14 06:30:18;;;;;;;14.63;12.27;;;7.60;99.90;;;;;;5064399;28;20462;-61
2024/03/14 06:32:46;;;;;;;15.30;11.50;;;7.60;99.90;;;;;;5064578;28;20457;-61
2024/03/14 06:35:13;;;;;;;17.17;11.10;;;7.60;99.90;;;;;;5063955;28;20504;-61
2024/03/14 06:37:41;;;;;;;14.67;11.83;;;7.60;99.90;;;;;;5065543;28;20798;-59
2024/03/14 06:40:09;;;;;;;14.30;11.30;;;7.60;99.90;;;;;;5064439;28;20542;-61
2024/03/14 06:42:36;;;;;;;17.63;10.80;;;7.60;99.90;;;;;;5063914;28;20878;-60
2024/03/14 06:45:04;;;;;;;15.83;11.13;;;7.60;99.90;;;;;;5064465;28;20457;-61
2024/03/14 06:47:33;;;;;;;13.53;11.20;;;7.60;99.90;;;;;;5064454;28;20453;-60
2024/03/14 06:50:02;;;;;;;16.43;11.00;;;7.70;99.90;;;;;;5063338;28;20489;-61
2024/03/14 06:52:29;;;;;;;16.17;12.60;;;7.70;99.90;;;;;;5064750;28;20464;-61
2024/03/14 06:54:57;;;;;;;17.40;11.70;;;7.80;99.90;;;;;;5064587;28;20484;-61
2024/03/14 06:57:25;;;;;;;21.67;11.63;;;7.90;99.90;;;;;;5065101;28;20484;-61
2024/03/14 06:59:52;;;;;;;13.83;11.27;;;8.00;99.90;;;;;;5065697;28;20457;-61
2024/03/14 07:02:19;;;;;;;15.23;12.47;;;8.10;99.90;;;;;;5063556;28;20915;-60
2024/03/14 07:04:48;;;;;;;12.83;11.47;;;8.20;99.90;;;;;;5064693;28;20460;-61
2024/03/14 07:07:16;;;;;;;15.30;12.40;;;8.20;99.90;;;;;;5065082;28;20480;-61
2024/03/14 07:09:45;;;;;;;15.30;12.90;;;8.30;99.90;;;;;;5065692;28;20500;-61
2024/03/14 07:12:13;;;;;;;15.10;11.80;;;8.40;99.90;;;;;;5065439;28;20958;-61
2024/03/14 07:14:41;;;;;;;12.87;10.20;;;8.40;99.90;;;;;;5064184;28;20458;-61
2024/03/14 07:17:08;;;;;;;13.10;10.87;;;8.40;99.90;;;;;;5064919;28;20493;-61
2024/03/14 07:19:35;;;;;;;15.20;11.13;;;8.50;99.90;;;;;;5064848;28;20920;-61
2024/03/14 07:22:03;;;;;;;14.60;11.40;;;8.60;99.90;;;;;;5065840;28;20539;-61
2024/03/14 07:24:30;;;;;;;13.53;11.37;;;8.90;99.90;;;;;;5061319;28;20526;-59
2024/03/14 07:26:58;;;;;;;12.60;11.17;;;9.00;99.90;;;;;;5060516;28;20942;-60
2024/03/14 07:29:25;;;;;;;11.97;10.63;;;9.20;99.90;;;;;;5060502;28;20482;-61
2024/03/14 07:31:53;;;;;;;12.87;10.33;;;9.40;99.90;;;;;;5059434;28;20485;-61
2024/03/14 07:34:23;;;;;;;12.43;10.17;;;9.50;99.90;;;;;;5059677;28;20458;-61
2024/03/14 07:36:50;;;;;;;11.70;10.13;;;9.60;1.00;;;;;;5059613;28;20517;-61
2024/03/14 07:39:24;;;;;;;10.67;9.60;;;9.70;1.00;;;;;;5059578;28;20944;-61
2024/03/14 07:41:52;;;;;;;10.90;9.70;;;10.00;1.00;;;;;;5059186;28;20458;-61
2024/03/14 07:44:20;;;;;;;11.30;9.90;;;10.20;51.20;;;;;;5058930;28;20899;-61
2024/03/14 07:46:48;;;;;;;15.43;9.23;;;10.30;99.90;;;;;;5059049;28;20458;-61
2024/03/14 07:49:15;;;;;;;9.67;8.20;;;10.30;1.00;;;;;;5058673;28;20458;-61
2024/03/14 07:51:42;;;;;;;9.07;8.17;;;10.40;99.90;;;;;;5058992;28;20756;-61
2024/03/14 07:54:11;;;;;;;9.63;7.67;;;10.50;5.80;;;;;;5058878;28;20472;-61
2024/03/14 07:56:38;;;;;;;9.20;8.23;;;10.50;1.00;;;;;;5058381;28;20579;-61
2024/03/14 07:59:06;;;;;;;10.37;8.33;;;10.50;1.00;;;;;;5060362;28;20461;-61
2024/03/14 08:01:34;;;;;;;9.10;8.20;;;10.60;34.90;;;;;;5060809;28;20461;-61
2024/03/14 08:04:03;;;;;;;9.03;7.87;;;10.80;1.00;;;;;;5061158;28;20563;-61
2024/03/14 08:06:35;;;;;;;11.57;8.80;;;11.00;1.00;;;;;;5061534;28;20453;-61
2024/03/14 08:09:04;;;;;;;9.80;7.30;;;11.30;1.00;;;;;;5061151;28;20461;-61
2024/03/14 08:11:31;;;;;;;8.20;7.00;;;11.70;99.90;;;;;;5061147;28;20461;-61
2024/03/14 08:14:06;;;;;;;9.13;7.30;;;12.10;99.90;;;;;;5058980;28;20458;-61
2024/03/14 08:16:33;;;;;;;7.43;6.63;;;12.20;99.90;;;;;;5040830;28;20493;-61
2024/03/14 08:19:00;;;;;;;7.17;6.23;;;12.20;1.00;;;;;;5039133;28;20552;-61
2024/03/14 08:21:29;;;;;;;12.00;6.10;;;12.20;99.90;;;;;;5039422;28;20552;-61
2024/03/14 08:23:58;;;;;;;7.90;6.57;;;12.20;99.90;;;;;;5046220;28;20460;-61
2024/03/14 08:26:25;;;;;;;6.53;5.80;;;12.10;99.90;;;;;;5057161;28;20480;-61
2024/03/14 08:28:54;;;;;;;8.90;5.80;;;12.20;99.90;;;;;;5040037;28;20454;-61
2024/03/14 08:31:22;;;;;;;7.03;6.10;;;12.50;99.90;;;;;;5057213;28;20560;-61
2024/03/14 08:33:50;;;;;;;6.33;5.70;;;12.80;1.00;;;;;;5059234;28;20461;-62
2024/03/14 08:36:17;;;;;;;7.93;6.17;;;12.80;1.00;;;;;;5059526;28;20941;-61
2024/03/14 08:38:45;;;;;;;6.70;5.50;;;12.80;1.00;;;;;;5059304;28;20460;-61
2024/03/14 08:41:13;;;;;;;7.57;5.90;;;12.90;1.00;;;;;;5058851;28;20504;-61
2024/03/14 08:43:40;;;;;;;6.70;6.10;;;13.10;1.00;;;;;;5061065;28;20741;-61
2024/03/14 08:46:08;;;;;;;8.00;5.57;;;13.30;99.90;;;;;;5059930;28;20943;-61
2024/03/14 08:48:35;;;;;;;6.87;5.33;;;13.40;94.70;;;;;;5059932;28;20810;-61
2024/03/14 08:51:03;;;;;;;7.33;5.17;;;13.60;92.50;;;;;;5059091;28;20457;-61
2024/03/14 08:53:53;;;;;;;6.40;4.87;;;13.70;77.50;;;;;;5058389;28;20460;-60
2024/03/14 08:56:19;;;;;;;6.57;5.60;;;13.90;99.90;;;;;;5060501;28;20485;-61
2024/03/14 08:58:47;;;;;;;6.83;5.47;;;14.20;99.90;;;;;;5058587;28;20956;-60
2024/03/14 09:01:14;;;;;;;5.50;4.73;;;14.60;36.90;;;;;;5056681;28;20912;-59
2024/03/14 09:03:41;;;;;;;7.67;5.20;;;14.90;99.90;;;;;;5056521;28;20460;-61
2024/03/14 09:06:09;;;;;;;5.77;5.17;;;15.00;99.90;;;;;;5057319;28;20522;-60
2024/03/14 09:08:36;;;;;;;5.80;5.30;;;15.10;4.90;;;;;;5058396;28;20464;-60
2024/03/14 09:11:03;;;;;;;8.03;4.73;;;15.00;1.00;;;;;;5058699;28;20461;-61
2024/03/14 09:13:31;;;;;;;5.50;5.00;;;15.00;19.20;;;;;;5058485;28;20453;-60
2024/03/14 09:15:58;;;;;;;6.17;4.90;;;15.10;99.90;;;;;;5057616;28;20952;-61
2024/03/14 09:18:26;;;;;;;5.30;4.80;;;15.20;99.90;;;;;;5057694;28;20453;-60
2024/03/14 09:20:55;;;;;;;6.40;4.50;;;15.20;1.00;;;;;;5055578;28;20698;-60
2024/03/14 09:23:25;;;;;;;5.53;5.03;;;15.20;99.90;;;;;;5057304;28;20531;-60
2024/03/14 09:25:52;;;;;;;6.00;4.77;;;15.30;99.90;;;;;;5057336;28;20473;-61
2024/03/14 09:28:21;;;;;;;5.90;4.70;;;15.30;1.30;;;;;;5058152;28;20485;-60
2024/03/14 09:30:57;;;;;;;7.60;4.90;;;15.40;83.70;;;;;;5056151;28;20548;-60
2024/03/14 09:33:26;;;;;;;5.97;4.90;;;15.50;49.00;;;;;;5057191;28;20468;-60
2024/03/14 09:35:53;;;;;;;12.30;4.67;;;15.40;21.90;;;;;;5059042;28;20556;-60
2024/03/14 09:38:20;;;;;;;6.30;5.40;;;15.40;17.10;;;;;;5057858;28;20556;-60
2024/03/14 09:40:48;;;;;;;7.03;4.70;;;15.30;23.50;;;;;;5057213;28;20526;-60
2024/03/14 09:43:15;;;;;;;5.67;4.80;;;15.30;49.10;;;;;;5061031;28;20487;-61
2024/03/14 09:45:44;;;;;;;5.97;5.37;;;15.10;3.30;;;;;;5061339;28;20508;-60
2024/03/14 09:48:11;;;;;;;4.53;4.13;;;14.80;56.80;;;;;;5062689;28;20503;-61
2024/03/14 09:50:39;;;;;;;7.50;5.40;;;14.70;43.30;;;;;;5061994;28;20472;-60
2024/03/14 09:53:06;;;;;;;5.33;4.70;;;14.70;1.00;;;;;;5062716;28;20457;-61
2024/03/14 09:55:34;;;;;;;6.13;5.53;;;15.10;17.30;;;;;;5062432;28;20520;-60
2024/03/14 09:58:04;;;;;;;4.77;4.17;;;15.50;99.90;;;;;;5062384;28;20527;-60
2024/03/14 10:00:32;;;;;;;5.13;4.63;;;15.80;72.60;;;;;;5062232;28;20464;-61
2024/03/14 10:03:00;;;;;;;5.50;5.00;;;16.00;18.90;;;;;;5061043;28;20504;-61
2024/03/14 10:05:28;;;;;;;6.33;4.77;;;16.00;58.90;;;;;;5062491;28;20547;-61
2024/03/14 10:07:58;;;;;;;6.17;5.10;;;16.20;99.90;;;;;;5061210;28;20493;-61
2024/03/14 10:10:25;;;;;;;4.50;4.00;;;16.50;96.60;;;;;;5060931;28;20479;-61
2024/03/14 10:12:53;;;;;;;5.70;4.80;;;16.50;66.70;;;;;;5060604;28;20832;-61
2024/03/14 10:15:21;;;;;;;5.80;5.20;;;16.60;12.20;;;;;;5059842;28;20457;-61
2024/03/14 10:17:48;;;;;;;5.90;4.63;;;16.60;1.00;;;;;;5059201;28;20496;-61
2024/03/14 10:20:17;;;;;;;4.97;4.10;;;16.80;19.00;;;;;;5060236;28;20527;-62
2024/03/14 10:22:46;;;;;;;5.27;4.63;;;17.10;67.80;;;;;;5060601;28;20465;-61
2024/03/14 10:25:14;;;;;;;6.10;4.40;;;17.20;30.90;;;;;;5061099;28;20464;-61
2024/03/14 10:27:44;;;;;;;5.03;4.57;;;17.30;3.90;;;;;;5061020;28;20485;-62
2024/03/14 10:30:12;;;;;;;5.27;4.73;;;17.40;1.00;;;;;;5061984;28;20802;-62
2024/03/14 10:32:39;;;;;;;9.00;5.70;;;17.60;1.00;;;;;;5061417;28;20886;-62
2024/03/14 10:35:10;;;;;;;4.57;4.17;;;17.50;1.00;;;;;;5062108;28;20457;-62
2024/03/14 10:37:39;;;;;;;5.77;5.17;;;17.40;1.00;;;;;;5061914;28;20496;-62
2024/03/14 10:40:09;;;;;;;5.47;4.97;;;17.50;14.20;;;;;;5062400;28;20586;-62
2024/03/14 10:42:37;;;;;;;6.27;5.53;;;17.80;19.20;;;;;;5061675;28;20461;-62
2024/03/14 10:45:05;;;;;;;6.33;4.70;;;18.20;91.10;;;;;;5060907;28;20917;-62
2024/03/14 10:47:33;;;;;;;5.97;5.43;;;18.20;99.90;;;;;;5061532;28;20464;-62
2024/03/14 10:50:09;;;;;;;6.00;5.40;;;17.80;99.90;;;;;;5060782;28;21034;-62
2024/03/14 10:52:38;;;;;;;6.57;5.27;;;17.40;99.90;;;;;;5061675;28;20547;-62
2024/03/14 10:55:10;;;;;;;5.20;4.70;;;17.30;99.90;;;;;;5062015;28;20468;-62
2024/03/14 10:57:38;;;;;;;6.80;5.50;;;17.30;99.90;;;;;;5061716;28;20588;-62
2024/03/14 11:00:14;;;;;;;5.77;4.80;;;17.10;99.90;;;;;;5060164;28;20469;-62
2024/03/14 11:02:43;;;;;;;7.70;5.43;;;17.00;99.90;;;;;;5060396;28;20498;-62
2024/03/14 11:05:12;;;;;;;5.60;5.20;;;16.60;99.90;;;;;;5061076;28;20514;-63
2024/03/14 11:07:43;;;;;;;6.80;4.70;;;16.40;99.90;;;;;;5059598;28;20469;-62
2024/03/14 11:10:12;;;;;;;5.13;4.60;;;16.50;99.90;;;;;;5061149;28;20481;-62
2024/03/14 11:12:40;;;;;;;6.03;5.13;;;16.80;99.90;;;;;;5060981;28;20489;-62
2024/03/14 11:15:08;;;;;;;4.60;4.10;;;17.00;99.90;;;;;;5060522;28;20456;-62
2024/03/14 11:17:36;;;;;;;4.40;4.00;;;17.40;99.90;;;;;;5060421;28;20517;-62
2024/03/14 11:20:09;;;;;;;5.80;4.50;;;17.70;99.90;;;;;;5061533;28;20493;-62
2024/03/14 11:22:40;;;;;;;4.77;4.30;;;18.10;1.00;;;;;;5062386;28;20548;-62
2024/03/14 11:25:08;;;;;;;5.10;4.40;;;18.50;1.00;;;;;;5062164;28;21094;-62
2024/03/14 11:27:37;;;;;;;4.70;4.20;;;18.50;1.00;;;;;;5061705;28;20477;-62
2024/03/14 11:30:12;;;;;;;6.10;4.70;;;18.10;1.00;;;;;;5062499;28;20457;-63
2024/03/14 11:32:47;;;;;;;6.03;4.20;;;17.60;1.00;;;;;;5063424;28;20898;-62
2024/03/14 11:35:34;;;;;;;4.40;3.47;;;17.20;1.00;;;;;;5063729;28;20539;-63
2024/03/14 11:38:04;;;;;;;4.77;4.00;;;17.10;1.00;;;;;;5079755;28;20633;-62
2024/03/14 11:40:34;;;;;;;4.83;3.40;;;17.20;1.00;;;;;;5064555;28;20463;-63
2024/03/14 11:43:01;;;;;;;3.73;3.33;;;17.70;1.00;;;;;;5062237;28;20511;-63
2024/03/14 11:45:31;;;;;;;4.30;3.70;;;18.30;1.00;;;;;;5062755;28;20461;-63
2024/03/14 11:47:59;;;;;;;4.90;3.80;;;18.70;1.00;;;;;;5072687;28;20467;-63
2024/03/14 11:50:33;;;;;;;4.17;3.77;;;18.90;1.00;;;;;;5064136;28;20462;-63
2024/03/14 11:53:00;;;;;;;4.20;3.80;;;18.50;1.00;;;;;;5063275;28;20457;-63
2024/03/14 11:55:29;;;;;;;4.73;4.20;;;18.20;1.00;;;;;;5062094;28;20461;-63
2024/03/14 11:57:57;;;;;;;4.37;3.50;;;18.30;1.00;;;;;;5063838;28;20512;-63
2024/03/14 12:00:26;;;;;;;4.13;3.73;;;18.60;1.00;;;;;;5057888;28;20460;-60
2024/03/14 12:02:54;;;;;;;4.10;3.70;;;18.70;1.00;;;;;;5056327;28;20461;-61
2024/03/14 12:05:25;;;;;;;6.30;4.20;;;19.20;1.00;;;;;;5056677;28;20613;-61
2024/03/14 12:07:54;;;;;;;5.60;4.57;;;19.40;1.00;;;;;;5057347;28;20750;-60
2024/03/14 12:10:23;;;;;;;4.83;4.40;;;19.30;1.00;;;;;;5057556;28;20457;-61
2024/03/14 12:12:54;;;;;;;4.83;4.43;;;19.50;1.00;;;;;;5057200;28;20465;-61
2024/03/14 12:15:23;;;;;;;5.13;4.00;;;19.50;1.00;;;;;;5058461;28;21133;-61
2024/03/14 12:17:57;;;;;;;5.20;4.70;;;19.30;99.90;;;;;;5060064;28;20512;-60
2024/03/14 12:20:25;;;;;;;4.63;4.30;;;19.20;99.90;;;;;;5060092;28;20499;-60
2024/03/14 12:22:56;;;;;;;5.23;4.70;;;19.10;99.90;;;;;;5059439;28;20458;-60
2024/03/14 12:25:24;;;;;;;7.93;5.03;;;19.00;99.90;;;;;;5060483;28;20536;-60
2024/03/14 12:27:52;;;;;;;4.97;4.47;;;19.20;99.90;;;;;;5059368;28;20914;-60
2024/03/14 12:30:20;;;;;;;5.50;5.00;;;19.30;99.90;;;;;;5058330;28;20459;-60
2024/03/14 12:32:54;;;;;;;6.30;4.27;;;19.40;99.90;;;;;;5057155;28;20545;-59
2024/03/14 12:35:22;;;;;;;4.43;4.03;;;19.70;99.90;;;;;;5060170;28;20464;-60
2024/03/14 12:37:52;;;;;;;5.07;4.57;;;19.70;99.90;;;;;;5057675;28;20491;-60
2024/03/14 12:40:21;;;;;;;4.50;4.10;;;19.50;99.90;;;;;;5059286;28;20547;-59
2024/03/14 12:42:49;;;;;;;4.73;4.20;;;19.40;99.90;;;;;;5056991;28;20472;-60
2024/03/14 12:45:16;;;;;;;4.93;4.43;;;19.40;99.90;;;;;;5059713;28;20432;-60
2024/03/14 12:47:47;;;;;;;5.20;4.73;;;19.50;99.90;;;;;;5058910;28;20544;-61
2024/03/14 12:50:24;;;;;;;5.40;4.90;;;19.40;99.90;;;;;;5039382;28;20461;-62
2024/03/14 12:53:06;;;;;;;6.90;5.10;;;19.50;99.90;;;;;;5038438;28;20560;-60
2024/03/14 12:55:34;;;;;;;6.17;4.90;;;19.90;99.90;;;;;;5050888;28;20780;-60
2024/03/14 12:58:02;;;;;;;5.67;5.17;;;20.30;99.90;;;;;;5037854;28;20557;-60
2024/03/14 13:00:29;;;;;;;5.00;4.60;;;20.20;99.90;;;;;;5037471;28;21524;-60